sensor_id;sensor_type;location;lat;lon;timestamp;pressure;altitude;pressure_sealevel;temperature;humidity
64158;BME280;50449;51.528;5.076;2023-02-28T00:00:30;102993.31;;;4.39;61.50
64158;BME280;50449;51.528;5.076;2023-02-28T00:02:55;102999.50;;;4.40;61.55
64158;BME280;50449;51.528;5.076;2023-02-28T00:05:22;103004.03;;;4.39;61.63
64158;BME280;50449;51.528;5.076;2023-02-28T00:07:49;103000.50;;;4.39;61.82
64158;BME280;50449;51.528;5.076;2023-02-28T00:10:18;103002.31;;;4.38;61.88
64158;BME280;50449;51.528;5.076;2023-02-28T00:12:55;102988.94;;;4.38;61.60
64158;BME280;50449;51.528;5.076;2023-02-28T00:15:23;102996.97;;;4.38;61.75
64158;BME280;50449;51.528;5.076;2023-02-28T00:17:49;102991.59;;;4.38;61.81
64158;BME280;50449;51.528;5.076;2023-02-28T00:20:14;102989.09;;;4.37;61.86
64158;BME280;50449;51.528;5.076;2023-02-28T00:22:43;102990.06;;;4.36;62.05
64158;BME280;50449;51.528;5.076;2023-02-28T00:25:10;102991.06;;;4.34;61.86
64158;BME280;50449;51.528;5.076;2023-02-28T00:27:37;102992.75;;;4.36;61.92
64158;BME280;50449;51.528;5.076;2023-02-28T00:30:04;102992.91;;;4.34;61.94
64158;BME280;50449;51.528;5.076;2023-02-28T00:32:30;102994.75;;;4.33;62.28
64158;BME280;50449;51.528;5.076;2023-02-28T00:34:55;102992.91;;;4.34;61.88
64158;BME280;50449;51.528;5.076;2023-02-28T00:37:21;102993.03;;;4.32;62.12
64158;BME280;50449;51.528;5.076;2023-02-28T00:39:47;102987.69;;;4.32;62.14
64158;BME280;50449;51.528;5.076;2023-02-28T00:42:12;102986.03;;;4.31;62.07
64158;BME280;50449;51.528;5.076;2023-02-28T00:44:38;102989.66;;;4.30;62.08
64158;BME280;50449;51.528;5.076;2023-02-28T00:47:03;102992.50;;;4.29;62.11
64158;BME280;50449;51.528;5.076;2023-02-28T00:49:29;102989.00;;;4.28;62.44
64158;BME280;50449;51.528;5.076;2023-02-28T00:51:55;102984.63;;;4.27;61.89
64158;BME280;50449;51.528;5.076;2023-02-28T00:54:21;102984.47;;;4.29;62.35
64158;BME280;50449;51.528;5.076;2023-02-28T00:56:47;102981.94;;;4.27;62.22
64158;BME280;50449;51.528;5.076;2023-02-28T00:59:13;102982.09;;;4.26;62.23
64158;BME280;50449;51.528;5.076;2023-02-28T01:01:39;102980.41;;;4.25;62.23
64158;BME280;50449;51.528;5.076;2023-02-28T01:04:05;102981.41;;;4.24;62.29
64158;BME280;50449;51.528;5.076;2023-02-28T01:06:31;102987.59;;;4.24;62.13
64158;BME280;50449;51.528;5.076;2023-02-28T01:08:57;102993.06;;;4.23;62.53
64158;BME280;50449;51.528;5.076;2023-02-28T01:11:22;102997.59;;;4.22;62.50
64158;BME280;50449;51.528;5.076;2023-02-28T01:13:48;102995.91;;;4.21;62.23
64158;BME280;50449;51.528;5.076;2023-02-28T01:16:14;103003.06;;;4.21;62.80
64158;BME280;50449;51.528;5.076;2023-02-28T01:18:39;102999.56;;;4.20;62.37
64158;BME280;50449;51.528;5.076;2023-02-28T01:21:06;102994.38;;;4.19;62.45
64158;BME280;50449;51.528;5.076;2023-02-28T01:23:33;103005.06;;;4.19;62.33
64158;BME280;50449;51.528;5.076;2023-02-28T01:26:13;103003.22;;;4.19;62.46
64158;BME280;50449;51.528;5.076;2023-02-28T01:28:39;103004.19;;;4.18;62.55
64158;BME280;50449;51.528;5.076;2023-02-28T01:31:05;103007.03;;;4.17;62.57
64158;BME280;50449;51.528;5.076;2023-02-28T01:33:31;103001.81;;;4.15;62.52
64158;BME280;50449;51.528;5.076;2023-02-28T01:36:02;102997.31;;;4.16;62.41
64158;BME280;50449;51.528;5.076;2023-02-28T01:38:28;103001.13;;;4.13;62.70
64158;BME280;50449;51.528;5.076;2023-02-28T01:40:54;103003.78;;;4.13;62.52
64158;BME280;50449;51.528;5.076;2023-02-28T01:43:29;102996.78;;;4.12;62.79
64158;BME280;50449;51.528;5.076;2023-02-28T01:45:56;103000.44;;;4.11;62.66
64158;BME280;50449;51.528;5.076;2023-02-28T01:48:30;102999.56;;;4.10;62.64
64158;BME280;50449;51.528;5.076;2023-02-28T01:50:59;102993.38;;;4.10;62.60
64158;BME280;50449;51.528;5.076;2023-02-28T01:53:32;102994.38;;;4.09;62.49
64158;BME280;50449;51.528;5.076;2023-02-28T01:56:00;102992.69;;;4.08;62.89
64158;BME280;50449;51.528;5.076;2023-02-28T01:58:25;102991.00;;;4.07;62.82
64158;BME280;50449;51.528;5.076;2023-02-28T02:00:51;102987.34;;;4.08;62.83
64158;BME280;50449;51.528;5.076;2023-02-28T02:03:18;102988.34;;;4.07;62.71
64158;BME280;50449;51.528;5.076;2023-02-28T02:05:45;102979.47;;;4.06;62.73
64158;BME280;50449;51.528;5.076;2023-02-28T02:08:16;102980.44;;;4.05;62.97
64158;BME280;50449;51.528;5.076;2023-02-28T02:10:45;102979.59;;;4.05;62.74
64158;BME280;50449;51.528;5.076;2023-02-28T02:13:37;102971.75;;;4.03;62.92
64158;BME280;50449;51.528;5.076;2023-02-28T02:18:43;102974.56;;;4.02;62.61
64158;BME280;50449;51.528;5.076;2023-02-28T02:28:57;102967.66;;;3.99;62.88
64158;BME280;50449;51.528;5.076;2023-02-28T02:34:57;102963.44;;;3.97;62.79
64158;BME280;50449;51.528;5.076;2023-02-28T02:37:25;102967.13;;;3.96;62.24
64158;BME280;50449;51.528;5.076;2023-02-28T02:40:05;102966.25;;;3.95;62.98
64158;BME280;50449;51.528;5.076;2023-02-28T02:42:51;102968.94;;;3.95;62.74
64158;BME280;50449;51.528;5.076;2023-02-28T02:45:38;102961.91;;;3.94;62.77
64158;BME280;50449;51.528;5.076;2023-02-28T02:48:07;102962.03;;;3.93;63.04
64158;BME280;50449;51.528;5.076;2023-02-28T02:50:37;102970.94;;;3.93;63.23
64158;BME280;50449;51.528;5.076;2023-02-28T02:53:05;102963.88;;;3.92;62.93
64158;BME280;50449;51.528;5.076;2023-02-28T02:55:34;102968.38;;;3.92;62.93
64158;BME280;50449;51.528;5.076;2023-02-28T02:58:05;102954.19;;;3.91;63.07
64158;BME280;50449;51.528;5.076;2023-02-28T03:00:37;102966.69;;;3.90;63.30
64158;BME280;50449;51.528;5.076;2023-02-28T03:03:04;102973.72;;;3.92;63.15
64158;BME280;50449;51.528;5.076;2023-02-28T03:05:34;102967.56;;;3.91;63.13
64158;BME280;50449;51.528;5.076;2023-02-28T03:08:03;102973.88;;;3.90;62.98
64158;BME280;50449;51.528;5.076;2023-02-28T03:10:37;102970.34;;;3.89;62.91
64158;BME280;50449;51.528;5.076;2023-02-28T03:21:34;102968.69;;;3.88;63.08
64158;BME280;50449;51.528;5.076;2023-02-28T03:26:31;102962.63;;;3.86;62.95
64158;BME280;50449;51.528;5.076;2023-02-28T03:32:03;102966.28;;;3.85;62.85
64158;BME280;50449;51.528;5.076;2023-02-28T03:34:35;102958.25;;;3.85;62.80
64158;BME280;50449;51.528;5.076;2023-02-28T03:37:11;102962.75;;;3.85;63.01
64158;BME280;50449;51.528;5.076;2023-02-28T03:39:41;102958.25;;;3.85;63.00
64158;BME280;50449;51.528;5.076;2023-02-28T03:44:52;102966.44;;;3.84;63.11
64158;BME280;50449;51.528;5.076;2023-02-28T03:47:33;102969.94;;;3.84;62.95
64158;BME280;50449;51.528;5.076;2023-02-28T03:50:11;102962.91;;;3.83;62.91
64158;BME280;50449;51.528;5.076;2023-02-28T03:52:47;102962.06;;;3.83;62.92
64158;BME280;50449;51.528;5.076;2023-02-28T03:55:15;102968.28;;;3.83;62.92
64158;BME280;50449;51.528;5.076;2023-02-28T04:00:47;102979.94;;;3.82;62.53
64158;BME280;50449;51.528;5.076;2023-02-28T04:03:14;102980.94;;;3.81;62.49
64158;BME280;50449;51.528;5.076;2023-02-28T04:05:55;102983.72;;;3.80;62.84
64158;BME280;50449;51.528;5.076;2023-02-28T04:08:22;102985.56;;;3.79;62.63
64158;BME280;50449;51.528;5.076;2023-02-28T04:11:16;102970.38;;;3.80;62.89
64158;BME280;50449;51.528;5.076;2023-02-28T04:13:44;102982.06;;;3.79;62.94
64158;BME280;50449;51.528;5.076;2023-02-28T04:16:09;102975.72;;;3.80;62.89
64158;BME280;50449;51.528;5.076;2023-02-28T04:18:38;102979.38;;;3.79;62.64
64158;BME280;50449;51.528;5.076;2023-02-28T04:21:05;102984.72;;;3.79;62.60
64158;BME280;50449;51.528;5.076;2023-02-28T04:23:31;102973.03;;;3.80;63.06
64158;BME280;50449;51.528;5.076;2023-02-28T04:25:57;102969.53;;;3.79;62.92
64158;BME280;50449;51.528;5.076;2023-02-28T04:28:22;102966.84;;;3.79;62.99
64158;BME280;50449;51.528;5.076;2023-02-28T04:30:47;102972.19;;;3.79;63.19
64158;BME280;50449;51.528;5.076;2023-02-28T04:33:13;102974.03;;;3.79;63.04
64158;BME280;50449;51.528;5.076;2023-02-28T04:35:38;102980.22;;;3.79;62.74
64158;BME280;50449;51.528;5.076;2023-02-28T04:38:03;102977.53;;;3.79;62.74
64158;BME280;50449;51.528;5.076;2023-02-28T04:40:32;102980.22;;;3.79;62.88
64158;BME280;50449;51.528;5.076;2023-02-28T04:42:57;102982.06;;;3.79;62.67
64158;BME280;50449;51.528;5.076;2023-02-28T04:45:22;102989.25;;;3.78;62.96
64158;BME280;50449;51.528;5.076;2023-02-28T04:47:48;102982.06;;;3.79;62.83
64158;BME280;50449;51.528;5.076;2023-02-28T04:50:14;102995.44;;;3.79;63.00
64158;BME280;50449;51.528;5.076;2023-02-28T04:52:39;102993.59;;;3.79;63.12
64158;BME280;50449;51.528;5.076;2023-02-28T04:55:05;102992.75;;;3.79;63.00
64158;BME280;50449;51.528;5.076;2023-02-28T04:57:31;102999.78;;;3.80;62.50
64158;BME280;50449;51.528;5.076;2023-02-28T04:59:56;103000.78;;;3.79;62.86
64158;BME280;50449;51.528;5.076;2023-02-28T05:02:21;102995.44;;;3.79;62.84
64158;BME280;50449;51.528;5.076;2023-02-28T05:04:48;103002.59;;;3.78;63.20
64158;BME280;50449;51.528;5.076;2023-02-28T05:07:14;102999.06;;;3.78;62.85
64158;BME280;50449;51.528;5.076;2023-02-28T05:09:39;103001.59;;;3.79;62.89
64158;BME280;50449;51.528;5.076;2023-02-28T05:12:05;103002.59;;;3.78;63.19
64158;BME280;50449;51.528;5.076;2023-02-28T05:14:30;102997.25;;;3.78;62.84
64158;BME280;50449;51.528;5.076;2023-02-28T05:16:55;103000.78;;;3.79;63.16
64158;BME280;50449;51.528;5.076;2023-02-28T05:19:21;103008.78;;;3.79;62.92
64158;BME280;50449;51.528;5.076;2023-02-28T05:21:51;103006.97;;;3.79;63.07
64158;BME280;50449;51.528;5.076;2023-02-28T05:24:18;103005.28;;;3.78;62.84
64158;BME280;50449;51.528;5.076;2023-02-28T05:26:49;103011.47;;;3.79;63.13
64158;BME280;50449;51.528;5.076;2023-02-28T05:29:16;103012.59;;;3.76;63.18
64158;BME280;50449;51.528;5.076;2023-02-28T05:31:41;103010.63;;;3.78;62.77
64158;BME280;50449;51.528;5.076;2023-02-28T05:34:07;103003.44;;;3.79;62.99
64158;BME280;50449;51.528;5.076;2023-02-28T05:36:33;103012.31;;;3.79;63.20
64158;BME280;50449;51.528;5.076;2023-02-28T05:38:58;103021.31;;;3.78;63.28
64158;BME280;50449;51.528;5.076;2023-02-28T05:41:23;103008.09;;;3.77;63.02
64158;BME280;50449;51.528;5.076;2023-02-28T05:43:49;103011.47;;;3.79;62.82
64158;BME280;50449;51.528;5.076;2023-02-28T05:46:15;103015.09;;;3.78;62.95
64158;BME280;50449;51.528;5.076;2023-02-28T05:48:41;103008.09;;;3.77;63.01
64158;BME280;50449;51.528;5.076;2023-02-28T05:51:08;103012.44;;;3.78;63.27
64158;BME280;50449;51.528;5.076;2023-02-28T05:53:34;103015.97;;;3.78;63.16
64158;BME280;50449;51.528;5.076;2023-02-28T05:56:00;103016.09;;;3.77;63.17
64158;BME280;50449;51.528;5.076;2023-02-28T05:58:26;103010.63;;;3.78;62.90
64158;BME280;50449;51.528;5.076;2023-02-28T06:00:56;103007.94;;;3.78;62.81
64158;BME280;50449;51.528;5.076;2023-02-28T06:03:21;103002.59;;;3.78;62.99
64158;BME280;50449;51.528;5.076;2023-02-28T06:05:47;103000.78;;;3.79;63.00
64158;BME280;50449;51.528;5.076;2023-02-28T06:08:12;103005.28;;;3.78;63.30
64158;BME280;50449;51.528;5.076;2023-02-28T06:10:37;102994.59;;;3.78;62.73
64158;BME280;50449;51.528;5.076;2023-02-28T06:13:04;103002.59;;;3.78;63.04
64158;BME280;50449;51.528;5.076;2023-02-28T06:15:29;102994.72;;;3.77;63.00
64158;BME280;50449;51.528;5.076;2023-02-28T06:17:55;103011.47;;;3.79;63.00
64158;BME280;50449;51.528;5.076;2023-02-28T06:20:25;103002.59;;;3.78;63.11
64158;BME280;50449;51.528;5.076;2023-02-28T06:22:54;103000.78;;;3.79;62.77
64158;BME280;50449;51.528;5.076;2023-02-28T06:25:21;103002.59;;;3.78;62.93
64158;BME280;50449;51.528;5.076;2023-02-28T06:27:47;103000.78;;;3.79;62.81
64158;BME280;50449;51.528;5.076;2023-02-28T06:30:13;103005.28;;;3.78;62.74
64158;BME280;50449;51.528;5.076;2023-02-28T06:32:38;102994.72;;;3.77;62.94
64158;BME280;50449;51.528;5.076;2023-02-28T06:35:04;103008.91;;;3.77;62.83
64158;BME280;50449;51.528;5.076;2023-02-28T06:37:31;103031.16;;;3.78;62.96
64158;BME280;50449;51.528;5.076;2023-02-28T06:39:57;103021.44;;;3.77;63.02
64158;BME280;50449;51.528;5.076;2023-02-28T06:42:24;103025.78;;;3.78;62.83
64158;BME280;50449;51.528;5.076;2023-02-28T06:44:57;103024.00;;;3.78;62.95
64158;BME280;50449;51.528;5.076;2023-02-28T06:47:23;103016.09;;;3.77;62.77
64158;BME280;50449;51.528;5.076;2023-02-28T06:49:49;103013.44;;;3.77;63.00
64158;BME280;50449;51.528;5.076;2023-02-28T06:52:15;103010.63;;;3.78;63.01
64158;BME280;50449;51.528;5.076;2023-02-28T06:54:40;103011.47;;;3.79;62.59
64158;BME280;50449;51.528;5.076;2023-02-28T06:57:06;103015.97;;;3.78;62.64
64158;BME280;50449;51.528;5.076;2023-02-28T06:59:31;103034.69;;;3.78;62.95
64158;BME280;50449;51.528;5.076;2023-02-28T07:01:57;103040.88;;;3.79;62.98
64158;BME280;50449;51.528;5.076;2023-02-28T07:04:22;103026.66;;;3.78;62.68
64158;BME280;50449;51.528;5.076;2023-02-28T07:06:48;103036.50;;;3.78;62.87
64158;BME280;50449;51.528;5.076;2023-02-28T07:09:13;103024.84;;;3.79;62.73
64158;BME280;50449;51.528;5.076;2023-02-28T07:11:39;103027.63;;;3.77;62.62
64158;BME280;50449;51.528;5.076;2023-02-28T07:14:06;103050.72;;;3.78;62.83
64158;BME280;50449;51.528;5.076;2023-02-28T07:16:32;103049.84;;;3.78;62.78
64158;BME280;50449;51.528;5.076;2023-02-28T07:18:57;103018.50;;;3.80;62.64
64158;BME280;50449;51.528;5.076;2023-02-28T07:21:23;103034.53;;;3.80;62.51
64158;BME280;50449;51.528;5.076;2023-02-28T07:23:48;103050.72;;;3.78;63.12
64158;BME280;50449;51.528;5.076;2023-02-28T07:26:16;103047.19;;;3.78;62.88
64158;BME280;50449;51.528;5.076;2023-02-28T07:28:43;103035.53;;;3.79;62.54
64158;BME280;50449;51.528;5.076;2023-02-28T07:31:10;103046.22;;;3.79;62.60
64158;BME280;50449;51.528;5.076;2023-02-28T07:33:35;103049.84;;;3.78;62.56
64158;BME280;50449;51.528;5.076;2023-02-28T07:36:07;103050.56;;;3.80;62.69
64158;BME280;50449;51.528;5.076;2023-02-28T07:38:37;103046.06;;;3.80;62.20
64158;BME280;50449;51.528;5.076;2023-02-28T07:41:05;103054.06;;;3.80;62.06
64158;BME280;50449;51.528;5.076;2023-02-28T07:43:31;103050.44;;;3.81;61.71
64158;BME280;50449;51.528;5.076;2023-02-28T07:46:09;103047.75;;;3.81;61.14
64158;BME280;50449;51.528;5.076;2023-02-28T07:48:34;103054.06;;;3.80;61.68
64158;BME280;50449;51.528;5.076;2023-02-28T07:51:00;103051.41;;;3.80;60.71
64158;BME280;50449;51.528;5.076;2023-02-28T07:53:27;103052.28;;;3.81;60.51
64158;BME280;50449;51.528;5.076;2023-02-28T07:55:57;103054.06;;;3.80;59.69
64158;BME280;50449;51.528;5.076;2023-02-28T07:58:23;103045.22;;;3.80;59.30
64158;BME280;50449;51.528;5.076;2023-02-28T08:00:49;103049.72;;;3.79;59.25
64158;BME280;50449;51.528;5.076;2023-02-28T08:03:15;103060.41;;;3.79;59.09
64158;BME280;50449;51.528;5.076;2023-02-28T08:05:41;103055.06;;;3.79;59.34
64158;BME280;50449;51.528;5.076;2023-02-28T08:08:07;103058.59;;;3.80;58.96
64158;BME280;50449;51.528;5.076;2023-02-28T08:10:33;103064.94;;;3.79;58.83
64158;BME280;50449;51.528;5.076;2023-02-28T08:12:58;103059.59;;;3.79;58.74
64158;BME280;50449;51.528;5.076;2023-02-28T08:15:24;103055.78;;;3.81;57.96
64158;BME280;50449;51.528;5.076;2023-02-28T08:17:49;103064.78;;;3.80;58.44
64158;BME280;50449;51.528;5.076;2023-02-28T08:20:15;103055.91;;;3.80;58.95
64158;BME280;50449;51.528;5.076;2023-02-28T08:22:40;103061.25;;;3.80;57.53
64158;BME280;50449;51.528;5.076;2023-02-28T08:25:07;103054.06;;;3.80;58.32
64158;BME280;50449;51.528;5.076;2023-02-28T08:27:33;103064.78;;;3.80;57.56
64158;BME280;50449;51.528;5.076;2023-02-28T08:29:58;103066.47;;;3.81;57.83
64158;BME280;50449;51.528;5.076;2023-02-28T08:32:24;103060.28;;;3.81;57.65
64158;BME280;50449;51.528;5.076;2023-02-28T08:34:49;103060.13;;;3.82;58.39
64158;BME280;50449;51.528;5.076;2023-02-28T08:37:15;103056.63;;;3.82;57.67
64158;BME280;50449;51.528;5.076;2023-02-28T08:39:40;103055.63;;;3.83;57.61
64158;BME280;50449;51.528;5.076;2023-02-28T08:42:05;103056.63;;;3.82;58.74
64158;BME280;50449;51.528;5.076;2023-02-28T08:44:31;103050.16;;;3.84;58.59
64158;BME280;50449;51.528;5.076;2023-02-28T08:46:56;103047.47;;;3.84;58.81
64158;BME280;50449;51.528;5.076;2023-02-28T08:49:22;103054.50;;;3.85;58.80
64158;BME280;50449;51.528;5.076;2023-02-28T08:51:47;103063.22;;;3.87;57.92
64158;BME280;50449;51.528;5.076;2023-02-28T08:54:12;103049.84;;;3.87;58.93
64158;BME280;50449;51.528;5.076;2023-02-28T08:56:39;103048.03;;;3.88;58.35
64158;BME280;50449;51.528;5.076;2023-02-28T08:59:05;103054.06;;;3.90;57.90
64158;BME280;50449;51.528;5.076;2023-02-28T09:01:30;103052.25;;;3.90;57.44
64158;BME280;50449;51.528;5.076;2023-02-28T09:03:57;103053.13;;;3.91;57.86
64158;BME280;50449;51.528;5.076;2023-02-28T09:06:25;103048.59;;;3.92;59.85
64158;BME280;50449;51.528;5.076;2023-02-28T09:08:51;103053.81;;;3.93;59.22
64158;BME280;50449;51.528;5.076;2023-02-28T09:11:17;103045.78;;;3.93;59.10
64158;BME280;50449;51.528;5.076;2023-02-28T09:13:44;103060.72;;;3.96;60.12
64158;BME280;50449;51.528;5.076;2023-02-28T09:16:12;103059.84;;;3.95;60.33
64158;BME280;50449;51.528;5.076;2023-02-28T09:18:38;103064.06;;;3.98;60.08
64158;BME280;50449;51.528;5.076;2023-02-28T09:21:09;103059.59;;;3.98;59.94
64158;BME280;50449;51.528;5.076;2023-02-28T09:23:35;103062.94;;;4.00;59.77
64158;BME280;50449;51.528;5.076;2023-02-28T09:26:03;103059.59;;;3.98;59.77
64158;BME280;50449;51.528;5.076;2023-02-28T09:28:29;103059.59;;;3.98;57.41
64158;BME280;50449;51.528;5.076;2023-02-28T09:30:54;103053.38;;;3.98;58.79
64158;BME280;50449;51.528;5.076;2023-02-28T09:33:21;103063.94;;;3.99;59.28
64158;BME280;50449;51.528;5.076;2023-02-28T09:35:49;103062.09;;;4.00;59.22
64158;BME280;50449;51.528;5.076;2023-02-28T09:38:19;103061.25;;;3.99;59.75
64158;BME280;50449;51.528;5.076;2023-02-28T09:40:57;103073.63;;;4.00;59.28
64158;BME280;50449;51.528;5.076;2023-02-28T09:43:26;103054.91;;;4.00;56.72
64158;BME280;50449;51.528;5.076;2023-02-28T09:45:56;103063.81;;;4.01;56.47
64158;BME280;50449;51.528;5.076;2023-02-28T09:48:32;103067.16;;;4.03;54.42
64158;BME280;50449;51.528;5.076;2023-02-28T09:51:33;103067.16;;;4.03;52.86
64158;BME280;50449;51.528;5.076;2023-02-28T09:54:01;103053.94;;;4.01;52.90
64158;BME280;50449;51.528;5.076;2023-02-28T09:56:32;103061.13;;;4.01;54.86
64158;BME280;50449;51.528;5.076;2023-02-28T10:02:10;103059.28;;;4.01;54.49
64158;BME280;50449;51.528;5.076;2023-02-28T10:04:51;103054.78;;;4.02;54.11
64158;BME280;50449;51.528;5.076;2023-02-28T10:10:32;103059.28;;;4.01;52.37
64158;BME280;50449;51.528;5.076;2023-02-28T10:12:57;103059.13;;;4.03;51.11
64158;BME280;50449;51.528;5.076;2023-02-28T10:15:25;103049.44;;;4.02;51.41
64158;BME280;50449;51.528;5.076;2023-02-28T10:18:03;103044.09;;;4.02;50.74
64158;BME280;50449;51.528;5.076;2023-02-28T10:20:33;103056.63;;;4.01;52.55
64158;BME280;50449;51.528;5.076;2023-02-28T10:25:36;103044.91;;;4.02;50.17
64158;BME280;50449;51.528;5.076;2023-02-28T10:28:12;103042.13;;;4.04;52.85
64158;BME280;50449;51.528;5.076;2023-02-28T10:30:42;103040.16;;;4.06;51.92
64158;BME280;50449;51.528;5.076;2023-02-28T10:33:30;103043.78;;;4.05;53.88
64158;BME280;50449;51.528;5.076;2023-02-28T10:35:57;103034.94;;;4.04;52.75
64158;BME280;50449;51.528;5.076;2023-02-28T10:38:31;103033.94;;;4.05;53.25
64158;BME280;50449;51.528;5.076;2023-02-28T10:41:08;103024.94;;;4.06;55.15
64158;BME280;50449;51.528;5.076;2023-02-28T10:43:35;103031.13;;;4.07;55.96
64158;BME280;50449;51.528;5.076;2023-02-28T10:49:00;103027.63;;;4.06;57.04
64158;BME280;50449;51.528;5.076;2023-02-28T10:51:37;103027.63;;;4.06;57.64
64158;BME280;50449;51.528;5.076;2023-02-28T10:54:03;103020.44;;;4.07;57.80
64158;BME280;50449;51.528;5.076;2023-02-28T10:56:30;103020.44;;;4.07;57.14
64158;BME280;50449;51.528;5.076;2023-02-28T11:01:42;103030.13;;;4.08;58.31
64158;BME280;50449;51.528;5.076;2023-02-28T11:06:48;103020.84;;;4.12;54.70
64158;BME280;50449;51.528;5.076;2023-02-28T11:09:39;103023.50;;;4.12;55.96
64158;BME280;50449;51.528;5.076;2023-02-28T11:15:03;103010.69;;;4.16;52.42
64158;BME280;50449;51.528;5.076;2023-02-28T11:17:33;103014.06;;;4.18;54.14
64158;BME280;50449;51.528;5.076;2023-02-28T11:20:05;103006.19;;;4.16;56.13
64158;BME280;50449;51.528;5.076;2023-02-28T11:22:37;103006.19;;;4.16;55.05
64158;BME280;50449;51.528;5.076;2023-02-28T11:25:15;103004.38;;;4.17;55.59
64158;BME280;50449;51.528;5.076;2023-02-28T11:27:53;103006.03;;;4.18;56.51
64158;BME280;50449;51.528;5.076;2023-02-28T11:32:56;103000.56;;;4.19;54.45
64158;BME280;50449;51.528;5.076;2023-02-28T11:35:36;103006.59;;;4.21;53.49
64158;BME280;50449;51.528;5.076;2023-02-28T11:38:07;102997.59;;;4.22;52.34
64158;BME280;50449;51.528;5.076;2023-02-28T11:40:38;102994.91;;;4.22;53.73
64158;BME280;50449;51.528;5.076;2023-02-28T11:43:10;102993.06;;;4.23;55.00
64158;BME280;50449;51.528;5.076;2023-02-28T11:45:59;103006.31;;;4.24;57.21
64158;BME280;50449;51.528;5.076;2023-02-28T11:48:41;102987.59;;;4.24;56.85
64158;BME280;50449;51.528;5.076;2023-02-28T11:51:35;102982.09;;;4.26;55.91
64158;BME280;50449;51.528;5.076;2023-02-28T11:54:07;102981.09;;;4.27;54.80
64158;BME280;50449;51.528;5.076;2023-02-28T11:56:48;102987.28;;;4.27;54.31
64158;BME280;50449;51.528;5.076;2023-02-28T12:02:26;102977.28;;;4.29;53.52
64158;BME280;50449;51.528;5.076;2023-02-28T12:05:11;102979.97;;;4.29;53.57
64158;BME280;50449;51.528;5.076;2023-02-28T12:08:00;102976.28;;;4.30;53.71
64158;BME280;50449;51.528;5.076;2023-02-28T12:10:32;102980.81;;;4.30;51.32
64158;BME280;50449;51.528;5.076;2023-02-28T12:13:22;102967.44;;;4.30;50.46
64158;BME280;50449;51.528;5.076;2023-02-28T12:26:48;102962.91;;;4.30;45.58
64158;BME280;50449;51.528;5.076;2023-02-28T12:29:43;102967.28;;;4.31;46.80
64158;BME280;50449;51.528;5.076;2023-02-28T12:32:21;102959.25;;;4.31;47.12
64158;BME280;50449;51.528;5.076;2023-02-28T12:34:52;102958.25;;;4.32;45.52
64158;BME280;50449;51.528;5.076;2023-02-28T12:37:25;102958.25;;;4.32;46.16
64158;BME280;50449;51.528;5.076;2023-02-28T12:40:00;102951.94;;;4.33;45.08
64158;BME280;50449;51.528;5.076;2023-02-28T12:42:33;102942.91;;;4.34;45.40
64158;BME280;50449;51.528;5.076;2023-02-28T12:45:06;102938.41;;;4.35;46.27
64158;BME280;50449;51.528;5.076;2023-02-28T12:47:34;102945.59;;;4.34;49.01
64158;BME280;50449;51.528;5.076;2023-02-28T12:50:06;102946.28;;;4.37;49.41
64158;BME280;50449;51.528;5.076;2023-02-28T12:52:58;102936.41;;;4.37;47.03
64158;BME280;50449;51.528;5.076;2023-02-28T12:55:46;102930.06;;;4.38;45.64
64158;BME280;50449;51.528;5.076;2023-02-28T13:09:17;102921.78;;;4.41;47.25
64158;BME280;50449;51.528;5.076;2023-02-28T13:11:51;102913.56;;;4.43;45.98
64158;BME280;50449;51.528;5.076;2023-02-28T13:19:35;102913.25;;;4.46;44.76
64158;BME280;50449;51.528;5.076;2023-02-28T13:22:02;102917.66;;;4.47;44.42
64158;BME280;50449;51.528;5.076;2023-02-28T13:24:39;102910.31;;;4.49;45.04
64158;BME280;50449;51.528;5.076;2023-02-28T13:29:37;102908.47;;;4.49;45.10
64158;BME280;50449;51.528;5.076;2023-02-28T13:39:48;102897.34;;;4.54;45.40
64158;BME280;50449;51.528;5.076;2023-02-28T13:42:32;102896.31;;;4.55;45.84
64158;BME280;50449;51.528;5.076;2023-02-28T13:47:35;102897.03;;;4.57;44.51
64158;BME280;50449;51.528;5.076;2023-02-28T13:53:19;102885.16;;;4.60;44.66
64158;BME280;50449;51.528;5.076;2023-02-28T13:56:07;102881.50;;;4.61;47.94
64158;BME280;50449;51.528;5.076;2023-02-28T14:01:42;102881.34;;;4.62;49.78
64158;BME280;50449;51.528;5.076;2023-02-28T14:06:50;102882.19;;;4.63;49.62
64158;BME280;50449;51.528;5.076;2023-02-28T14:09:29;102882.19;;;4.63;46.10
64158;BME280;50449;51.528;5.076;2023-02-28T14:11:57;102890.09;;;4.64;44.63
64158;BME280;50449;51.528;5.076;2023-02-28T14:17:02;102883.72;;;4.65;45.99
64158;BME280;50449;51.528;5.076;2023-02-28T14:19:30;102876.38;;;4.67;45.13
64158;BME280;50449;51.528;5.076;2023-02-28T14:22:01;102886.09;;;4.68;49.48
64158;BME280;50449;51.528;5.076;2023-02-28T14:24:42;102884.94;;;4.71;45.70
64158;BME280;50449;51.528;5.076;2023-02-28T14:38:16;102872.13;;;4.74;45.53
64158;BME280;50449;51.528;5.076;2023-02-28T14:40:45;102872.94;;;4.75;43.92
64158;BME280;50449;51.528;5.076;2023-02-28T14:43:20;102875.63;;;4.75;44.70
64158;BME280;50449;51.528;5.076;2023-02-28T14:45:49;102871.94;;;4.76;43.05
64158;BME280;50449;51.528;5.076;2023-02-28T14:48:17;102874.63;;;4.76;44.50
64158;BME280;50449;51.528;5.076;2023-02-28T14:50:49;102871.94;;;4.76;44.30
64158;BME280;50449;51.528;5.076;2023-02-28T14:53:18;102865.63;;;4.77;43.91
64158;BME280;50449;51.528;5.076;2023-02-28T14:55:46;102869.00;;;4.79;43.08
64158;BME280;50449;51.528;5.076;2023-02-28T15:00:48;102862.50;;;4.82;45.45
64158;BME280;50449;51.528;5.076;2023-02-28T15:06:17;102861.47;;;4.83;43.84
64158;BME280;50449;51.528;5.076;2023-02-28T15:08:44;102857.78;;;4.84;44.62
64158;BME280;50449;51.528;5.076;2023-02-28T15:11:17;102859.50;;;4.85;43.08
64158;BME280;50449;51.528;5.076;2023-02-28T15:13:52;102860.34;;;4.85;44.37
64158;BME280;50449;51.528;5.076;2023-02-28T15:16:22;102860.19;;;4.87;44.51
64158;BME280;50449;51.528;5.076;2023-02-28T15:21:45;102857.34;;;4.88;46.47